sensor_id;sensor_type;location;lat;lon;timestamp;P1;durP1;ratioP1;P2;durP2;ratioP2
43150;SDS011;28755;51.478;5.702;2022-12-18T00:01:24;70.32;;;31.48;;
43150;SDS011;28755;51.478;5.702;2022-12-18T00:03:52;68.68;;;30.95;;
43150;SDS011;28755;51.478;5.702;2022-12-18T00:06:19;69.00;;;31.05;;
43150;SDS011;28755;51.478;5.702;2022-12-18T00:08:46;68.63;;;30.25;;
43150;SDS011;28755;51.478;5.702;2022-12-18T00:11:13;66.60;;;30.15;;
43150;SDS011;28755;51.478;5.702;2022-12-18T00:13:40;59.28;;;29.10;;
43150;SDS011;28755;51.478;5.702;2022-12-18T00:16:07;65.65;;;31.02;;
43150;SDS011;28755;51.478;5.702;2022-12-18T00:18:35;66.50;;;29.92;;
43150;SDS011;28755;51.478;5.702;2022-12-18T00:21:02;69.15;;;31.10;;
43150;SDS011;28755;51.478;5.702;2022-12-18T00:23:29;63.40;;;29.55;;
43150;SDS011;28755;51.478;5.702;2022-12-18T00:25:59;74.38;;;31.27;;
43150;SDS011;28755;51.478;5.702;2022-12-18T00:28:28;81.78;;;34.35;;
43150;SDS011;28755;51.478;5.702;2022-12-18T00:31:27;72.22;;;34.15;;
43150;SDS011;28755;51.478;5.702;2022-12-18T00:33:47;67.05;;;31.63;;
43150;SDS011;28755;51.478;5.702;2022-12-18T00:36:14;72.50;;;32.80;;
43150;SDS011;28755;51.478;5.702;2022-12-18T00:38:42;67.57;;;32.10;;
43150;SDS011;28755;51.478;5.702;2022-12-18T00:41:09;65.00;;;30.95;;
43150;SDS011;28755;51.478;5.702;2022-12-18T00:43:36;65.22;;;29.88;;
43150;SDS011;28755;51.478;5.702;2022-12-18T00:46:02;70.88;;;31.13;;
43150;SDS011;28755;51.478;5.702;2022-12-18T00:48:28;72.90;;;30.40;;
43150;SDS011;28755;51.478;5.702;2022-12-18T00:50:54;66.40;;;29.10;;
43150;SDS011;28755;51.478;5.702;2022-12-18T00:53:20;65.35;;;29.88;;
43150;SDS011;28755;51.478;5.702;2022-12-18T00:55:46;66.22;;;31.20;;
43150;SDS011;28755;51.478;5.702;2022-12-18T00:58:12;62.97;;;28.67;;
43150;SDS011;28755;51.478;5.702;2022-12-18T01:00:39;59.38;;;28.50;;
43150;SDS011;28755;51.478;5.702;2022-12-18T01:03:05;62.92;;;28.92;;
43150;SDS011;28755;51.478;5.702;2022-12-18T01:05:31;54.95;;;27.10;;
43150;SDS011;28755;51.478;5.702;2022-12-18T01:07:57;59.58;;;27.75;;
43150;SDS011;28755;51.478;5.702;2022-12-18T01:10:23;59.55;;;27.85;;
43150;SDS011;28755;51.478;5.702;2022-12-18T01:12:49;65.25;;;26.40;;
43150;SDS011;28755;51.478;5.702;2022-12-18T01:15:16;58.85;;;26.00;;
43150;SDS011;28755;51.478;5.702;2022-12-18T01:17:42;54.42;;;27.63;;
43150;SDS011;28755;51.478;5.702;2022-12-18T01:20:09;54.78;;;27.02;;
43150;SDS011;28755;51.478;5.702;2022-12-18T01:22:36;62.97;;;26.83;;
43150;SDS011;28755;51.478;5.702;2022-12-18T01:25:02;54.38;;;26.80;;
43150;SDS011;28755;51.478;5.702;2022-12-18T01:27:29;56.60;;;27.42;;
43150;SDS011;28755;51.478;5.702;2022-12-18T01:29:55;55.63;;;27.02;;
43150;SDS011;28755;51.478;5.702;2022-12-18T01:32:20;57.10;;;26.27;;
43150;SDS011;28755;51.478;5.702;2022-12-18T01:34:46;54.03;;;25.75;;
43150;SDS011;28755;51.478;5.702;2022-12-18T01:37:12;58.33;;;26.88;;
43150;SDS011;28755;51.478;5.702;2022-12-18T01:39:38;55.72;;;24.75;;
43150;SDS011;28755;51.478;5.702;2022-12-18T01:42:05;57.35;;;26.52;;
43150;SDS011;28755;51.478;5.702;2022-12-18T01:47:18;53.13;;;26.98;;
43150;SDS011;28755;51.478;5.702;2022-12-18T01:49:48;52.80;;;26.48;;
43150;SDS011;28755;51.478;5.702;2022-12-18T01:52:14;58.33;;;26.83;;
43150;SDS011;28755;51.478;5.702;2022-12-18T01:54:41;55.42;;;25.70;;
43150;SDS011;28755;51.478;5.702;2022-12-18T01:57:08;52.05;;;25.05;;
43150;SDS011;28755;51.478;5.702;2022-12-18T01:59:33;51.60;;;25.35;;
43150;SDS011;28755;51.478;5.702;2022-12-18T02:02:01;55.28;;;27.10;;
43150;SDS011;28755;51.478;5.702;2022-12-18T02:04:27;59.35;;;28.20;;
43150;SDS011;28755;51.478;5.702;2022-12-18T02:06:55;54.17;;;27.10;;
43150;SDS011;28755;51.478;5.702;2022-12-18T02:09:40;52.63;;;26.15;;
43150;SDS011;28755;51.478;5.702;2022-12-18T02:12:14;54.90;;;27.35;;
43150;SDS011;28755;51.478;5.702;2022-12-18T02:14:45;48.40;;;24.25;;
43150;SDS011;28755;51.478;5.702;2022-12-18T02:17:21;45.13;;;21.15;;
43150;SDS011;28755;51.478;5.702;2022-12-18T02:22:20;45.97;;;22.75;;
43150;SDS011;28755;51.478;5.702;2022-12-18T02:28:09;43.38;;;22.08;;
43150;SDS011;28755;51.478;5.702;2022-12-18T02:30:38;47.63;;;22.50;;
43150;SDS011;28755;51.478;5.702;2022-12-18T02:33:06;44.00;;;21.48;;
43150;SDS011;28755;51.478;5.702;2022-12-18T02:35:34;44.03;;;21.47;;
43150;SDS011;28755;51.478;5.702;2022-12-18T02:38:03;41.10;;;20.30;;
43150;SDS011;28755;51.478;5.702;2022-12-18T02:40:29;40.10;;;19.45;;
43150;SDS011;28755;51.478;5.702;2022-12-18T02:43:01;40.38;;;19.40;;
43150;SDS011;28755;51.478;5.702;2022-12-18T02:45:31;41.78;;;21.00;;
43150;SDS011;28755;51.478;5.702;2022-12-18T02:47:57;44.45;;;20.42;;
43150;SDS011;28755;51.478;5.702;2022-12-18T02:50:26;43.03;;;20.17;;
43150;SDS011;28755;51.478;5.702;2022-12-18T02:53:24;44.75;;;20.40;;
43150;SDS011;28755;51.478;5.702;2022-12-18T02:56:09;40.80;;;20.58;;
43150;SDS011;28755;51.478;5.702;2022-12-18T02:58:45;38.03;;;20.30;;
43150;SDS011;28755;51.478;5.702;2022-12-18T03:04:00;41.53;;;20.02;;
43150;SDS011;28755;51.478;5.702;2022-12-18T03:06:32;42.40;;;19.05;;
43150;SDS011;28755;51.478;5.702;2022-12-18T03:09:07;43.13;;;20.13;;
43150;SDS011;28755;51.478;5.702;2022-12-18T03:11:45;39.38;;;19.70;;
43150;SDS011;28755;51.478;5.702;2022-12-18T03:14:36;39.65;;;19.70;;
43150;SDS011;28755;51.478;5.702;2022-12-18T03:17:05;41.65;;;19.35;;
43150;SDS011;28755;51.478;5.702;2022-12-18T03:19:35;36.90;;;18.97;;
43150;SDS011;28755;51.478;5.702;2022-12-18T03:22:04;37.85;;;19.40;;
43150;SDS011;28755;51.478;5.702;2022-12-18T03:24:32;37.75;;;19.10;;
43150;SDS011;28755;51.478;5.702;2022-12-18T03:27:03;36.40;;;18.60;;
43150;SDS011;28755;51.478;5.702;2022-12-18T03:29:46;40.58;;;19.73;;
43150;SDS011;28755;51.478;5.702;2022-12-18T03:32:16;39.05;;;19.25;;
43150;SDS011;28755;51.478;5.702;2022-12-18T03:34:51;40.42;;;20.30;;
43150;SDS011;28755;51.478;5.702;2022-12-18T03:37:21;37.25;;;19.60;;
43150;SDS011;28755;51.478;5.702;2022-12-18T03:39:47;36.40;;;18.40;;
43150;SDS011;28755;51.478;5.702;2022-12-18T03:47:36;35.58;;;17.98;;
43150;SDS011;28755;51.478;5.702;2022-12-18T03:53:17;35.30;;;19.05;;
43150;SDS011;28755;51.478;5.702;2022-12-18T03:55:50;35.42;;;18.55;;
43150;SDS011;28755;51.478;5.702;2022-12-18T03:58:19;33.83;;;18.40;;
43150;SDS011;28755;51.478;5.702;2022-12-18T04:00:48;32.50;;;17.70;;
43150;SDS011;28755;51.478;5.702;2022-12-18T04:03:16;36.85;;;18.58;;
43150;SDS011;28755;51.478;5.702;2022-12-18T04:05:44;35.85;;;19.08;;
43150;SDS011;28755;51.478;5.702;2022-12-18T04:08:10;39.00;;;18.17;;
43150;SDS011;28755;51.478;5.702;2022-12-18T04:10:37;34.20;;;17.52;;
43150;SDS011;28755;51.478;5.702;2022-12-18T04:13:03;37.47;;;18.02;;
43150;SDS011;28755;51.478;5.702;2022-12-18T04:15:28;33.42;;;17.88;;
43150;SDS011;28755;51.478;5.702;2022-12-18T04:17:54;33.33;;;17.45;;
43150;SDS011;28755;51.478;5.702;2022-12-18T04:20:19;34.33;;;17.60;;
43150;SDS011;28755;51.478;5.702;2022-12-18T04:22:45;35.15;;;17.05;;
43150;SDS011;28755;51.478;5.702;2022-12-18T04:25:11;34.42;;;18.02;;
43150;SDS011;28755;51.478;5.702;2022-12-18T04:27:37;35.28;;;17.63;;
43150;SDS011;28755;51.478;5.702;2022-12-18T04:30:03;35.65;;;19.35;;
43150;SDS011;28755;51.478;5.702;2022-12-18T04:32:29;36.25;;;17.75;;
43150;SDS011;28755;51.478;5.702;2022-12-18T04:34:55;33.53;;;17.10;;
43150;SDS011;28755;51.478;5.702;2022-12-18T04:37:21;32.45;;;17.00;;
43150;SDS011;28755;51.478;5.702;2022-12-18T04:39:46;32.05;;;18.10;;
43150;SDS011;28755;51.478;5.702;2022-12-18T04:42:12;33.60;;;17.92;;
43150;SDS011;28755;51.478;5.702;2022-12-18T04:44:38;34.20;;;17.95;;
43150;SDS011;28755;51.478;5.702;2022-12-18T04:47:03;33.83;;;17.50;;
43150;SDS011;28755;51.478;5.702;2022-12-18T04:49:29;30.65;;;17.70;;
43150;SDS011;28755;51.478;5.702;2022-12-18T04:51:55;33.88;;;17.90;;
43150;SDS011;28755;51.478;5.702;2022-12-18T04:54:20;33.67;;;17.17;;
43150;SDS011;28755;51.478;5.702;2022-12-18T04:56:46;29.23;;;16.35;;
43150;SDS011;28755;51.478;5.702;2022-12-18T04:59:12;32.38;;;17.08;;
43150;SDS011;28755;51.478;5.702;2022-12-18T05:01:38;34.80;;;17.75;;
43150;SDS011;28755;51.478;5.702;2022-12-18T05:04:03;32.10;;;17.52;;
43150;SDS011;28755;51.478;5.702;2022-12-18T05:06:29;33.03;;;17.15;;
43150;SDS011;28755;51.478;5.702;2022-12-18T05:08:54;36.15;;;18.25;;
43150;SDS011;28755;51.478;5.702;2022-12-18T05:11:20;30.73;;;16.92;;
43150;SDS011;28755;51.478;5.702;2022-12-18T05:13:46;32.72;;;18.08;;
43150;SDS011;28755;51.478;5.702;2022-12-18T05:16:12;33.55;;;18.15;;
43150;SDS011;28755;51.478;5.702;2022-12-18T05:18:39;35.38;;;17.52;;
43150;SDS011;28755;51.478;5.702;2022-12-18T05:21:05;34.85;;;17.40;;
43150;SDS011;28755;51.478;5.702;2022-12-18T05:23:31;31.48;;;17.25;;
43150;SDS011;28755;51.478;5.702;2022-12-18T05:25:57;35.67;;;18.45;;
43150;SDS011;28755;51.478;5.702;2022-12-18T05:28:25;34.35;;;17.50;;
43150;SDS011;28755;51.478;5.702;2022-12-18T05:30:54;32.28;;;17.30;;
43150;SDS011;28755;51.478;5.702;2022-12-18T05:33:22;35.20;;;18.35;;
43150;SDS011;28755;51.478;5.702;2022-12-18T05:35:52;38.80;;;17.42;;
43150;SDS011;28755;51.478;5.702;2022-12-18T05:38:22;31.92;;;17.38;;
43150;SDS011;28755;51.478;5.702;2022-12-18T05:40:49;32.30;;;16.80;;
43150;SDS011;28755;51.478;5.702;2022-12-18T05:43:15;31.35;;;17.08;;
43150;SDS011;28755;51.478;5.702;2022-12-18T05:45:41;29.20;;;17.08;;
43150;SDS011;28755;51.478;5.702;2022-12-18T05:48:08;31.73;;;17.40;;
43150;SDS011;28755;51.478;5.702;2022-12-18T05:50:37;33.85;;;17.13;;
43150;SDS011;28755;51.478;5.702;2022-12-18T05:55:33;33.92;;;17.20;;
43150;SDS011;28755;51.478;5.702;2022-12-18T06:00:25;35.17;;;18.25;;
43150;SDS011;28755;51.478;5.702;2022-12-18T06:02:51;35.58;;;18.15;;
43150;SDS011;28755;51.478;5.702;2022-12-18T06:05:16;32.35;;;17.35;;
43150;SDS011;28755;51.478;5.702;2022-12-18T06:07:42;36.17;;;18.70;;
43150;SDS011;28755;51.478;5.702;2022-12-18T06:10:07;35.17;;;19.60;;
43150;SDS011;28755;51.478;5.702;2022-12-18T06:12:33;30.95;;;17.02;;
43150;SDS011;28755;51.478;5.702;2022-12-18T06:14:59;33.70;;;17.30;;
43150;SDS011;28755;51.478;5.702;2022-12-18T06:17:28;35.25;;;18.13;;
43150;SDS011;28755;51.478;5.702;2022-12-18T06:19:54;35.20;;;18.38;;
43150;SDS011;28755;51.478;5.702;2022-12-18T06:22:20;31.52;;;17.55;;
43150;SDS011;28755;51.478;5.702;2022-12-18T06:24:46;33.70;;;18.75;;
43150;SDS011;28755;51.478;5.702;2022-12-18T06:27:12;34.72;;;18.77;;
43150;SDS011;28755;51.478;5.702;2022-12-18T06:29:37;37.15;;;19.13;;
43150;SDS011;28755;51.478;5.702;2022-12-18T06:32:03;38.03;;;18.73;;
43150;SDS011;28755;51.478;5.702;2022-12-18T06:34:29;31.95;;;17.48;;
43150;SDS011;28755;51.478;5.702;2022-12-18T06:36:55;36.63;;;18.80;;
43150;SDS011;28755;51.478;5.702;2022-12-18T06:39:21;30.48;;;17.80;;
43150;SDS011;28755;51.478;5.702;2022-12-18T06:41:46;38.17;;;19.55;;
43150;SDS011;28755;51.478;5.702;2022-12-18T06:44:12;33.35;;;17.73;;
43150;SDS011;28755;51.478;5.702;2022-12-18T06:46:38;29.52;;;17.42;;
43150;SDS011;28755;51.478;5.702;2022-12-18T06:49:03;32.65;;;17.65;;
43150;SDS011;28755;51.478;5.702;2022-12-18T06:51:29;35.38;;;17.63;;
43150;SDS011;28755;51.478;5.702;2022-12-18T06:53:55;34.92;;;17.73;;
43150;SDS011;28755;51.478;5.702;2022-12-18T06:56:20;38.15;;;18.77;;
43150;SDS011;28755;51.478;5.702;2022-12-18T06:58:46;34.20;;;17.67;;
43150;SDS011;28755;51.478;5.702;2022-12-18T07:01:12;34.97;;;17.45;;
43150;SDS011;28755;51.478;5.702;2022-12-18T07:03:38;30.65;;;17.02;;
43150;SDS011;28755;51.478;5.702;2022-12-18T07:06:05;37.30;;;17.92;;
43150;SDS011;28755;51.478;5.702;2022-12-18T07:08:31;35.25;;;17.90;;
43150;SDS011;28755;51.478;5.702;2022-12-18T07:10:57;36.70;;;17.92;;
43150;SDS011;28755;51.478;5.702;2022-12-18T07:13:23;34.75;;;17.85;;
43150;SDS011;28755;51.478;5.702;2022-12-18T07:15:48;35.08;;;18.50;;
43150;SDS011;28755;51.478;5.702;2022-12-18T07:18:14;33.85;;;17.92;;
43150;SDS011;28755;51.478;5.702;2022-12-18T07:20:39;32.97;;;17.75;;
43150;SDS011;28755;51.478;5.702;2022-12-18T07:23:05;34.60;;;18.17;;
43150;SDS011;28755;51.478;5.702;2022-12-18T07:25:34;31.35;;;17.65;;
43150;SDS011;28755;51.478;5.702;2022-12-18T07:28:00;37.55;;;18.77;;
43150;SDS011;28755;51.478;5.702;2022-12-18T07:30:26;34.33;;;18.10;;
43150;SDS011;28755;51.478;5.702;2022-12-18T07:32:52;36.92;;;17.95;;
43150;SDS011;28755;51.478;5.702;2022-12-18T07:35:17;32.25;;;16.65;;
43150;SDS011;28755;51.478;5.702;2022-12-18T07:37:43;32.85;;;18.88;;
43150;SDS011;28755;51.478;5.702;2022-12-18T07:40:09;36.80;;;18.30;;
43150;SDS011;28755;51.478;5.702;2022-12-18T07:42:35;36.40;;;19.05;;
43150;SDS011;28755;51.478;5.702;2022-12-18T07:45:02;35.25;;;19.13;;
43150;SDS011;28755;51.478;5.702;2022-12-18T07:47:28;34.00;;;18.55;;
43150;SDS011;28755;51.478;5.702;2022-12-18T07:49:54;44.58;;;19.42;;
43150;SDS011;28755;51.478;5.702;2022-12-18T07:52:20;35.28;;;18.10;;
43150;SDS011;28755;51.478;5.702;2022-12-18T07:54:46;38.88;;;18.73;;
43150;SDS011;28755;51.478;5.702;2022-12-18T07:57:13;32.63;;;17.83;;
43150;SDS011;28755;51.478;5.702;2022-12-18T07:59:40;34.17;;;18.80;;
43150;SDS011;28755;51.478;5.702;2022-12-18T08:02:05;33.47;;;17.73;;
43150;SDS011;28755;51.478;5.702;2022-12-18T08:04:31;29.05;;;16.52;;
43150;SDS011;28755;51.478;5.702;2022-12-18T08:06:59;33.88;;;18.40;;
43150;SDS011;28755;51.478;5.702;2022-12-18T08:09:25;36.13;;;17.42;;
43150;SDS011;28755;51.478;5.702;2022-12-18T08:11:50;31.98;;;17.08;;
43150;SDS011;28755;51.478;5.702;2022-12-18T08:14:16;30.75;;;17.33;;
43150;SDS011;28755;51.478;5.702;2022-12-18T08:16:41;33.67;;;17.88;;
43150;SDS011;28755;51.478;5.702;2022-12-18T08:19:07;35.63;;;18.10;;
43150;SDS011;28755;51.478;5.702;2022-12-18T08:21:32;33.42;;;18.45;;
43150;SDS011;28755;51.478;5.702;2022-12-18T08:23:58;29.73;;;15.82;;
43150;SDS011;28755;51.478;5.702;2022-12-18T08:26:27;32.85;;;18.35;;
43150;SDS011;28755;51.478;5.702;2022-12-18T08:28:54;32.97;;;18.17;;
43150;SDS011;28755;51.478;5.702;2022-12-18T08:31:21;32.28;;;16.55;;
43150;SDS011;28755;51.478;5.702;2022-12-18T08:33:50;31.73;;;17.35;;
43150;SDS011;28755;51.478;5.702;2022-12-18T08:38:43;26.70;;;15.25;;
43150;SDS011;28755;51.478;5.702;2022-12-18T08:41:09;29.83;;;16.83;;
43150;SDS011;28755;51.478;5.702;2022-12-18T08:43:36;29.85;;;15.77;;
43150;SDS011;28755;51.478;5.702;2022-12-18T08:46:21;27.52;;;16.45;;
43150;SDS011;28755;51.478;5.702;2022-12-18T08:48:49;29.30;;;15.93;;
43150;SDS011;28755;51.478;5.702;2022-12-18T08:51:16;30.02;;;15.32;;
43150;SDS011;28755;51.478;5.702;2022-12-18T08:53:42;28.45;;;16.02;;
43150;SDS011;28755;51.478;5.702;2022-12-18T08:56:09;28.58;;;14.85;;
43150;SDS011;28755;51.478;5.702;2022-12-18T08:58:35;24.80;;;15.20;;
43150;SDS011;28755;51.478;5.702;2022-12-18T09:01:01;26.65;;;14.27;;
43150;SDS011;28755;51.478;5.702;2022-12-18T09:03:32;28.60;;;15.00;;
43150;SDS011;28755;51.478;5.702;2022-12-18T09:05:57;30.40;;;15.55;;
43150;SDS011;28755;51.478;5.702;2022-12-18T09:08:23;25.73;;;15.15;;
43150;SDS011;28755;51.478;5.702;2022-12-18T09:10:49;29.08;;;15.38;;
43150;SDS011;28755;51.478;5.702;2022-12-18T09:13:15;27.00;;;14.20;;
43150;SDS011;28755;51.478;5.702;2022-12-18T09:15:42;24.35;;;13.40;;
43150;SDS011;28755;51.478;5.702;2022-12-18T09:18:10;26.83;;;14.50;;
43150;SDS011;28755;51.478;5.702;2022-12-18T09:20:36;26.38;;;15.27;;
43150;SDS011;28755;51.478;5.702;2022-12-18T09:23:03;25.75;;;14.80;;
43150;SDS011;28755;51.478;5.702;2022-12-18T09:25:29;28.60;;;15.35;;
43150;SDS011;28755;51.478;5.702;2022-12-18T09:27:58;24.23;;;14.55;;
43150;SDS011;28755;51.478;5.702;2022-12-18T09:30:47;27.33;;;15.70;;
43150;SDS011;28755;51.478;5.702;2022-12-18T09:33:13;28.98;;;15.25;;
43150;SDS011;28755;51.478;5.702;2022-12-18T09:35:40;29.40;;;16.98;;
43150;SDS011;28755;51.478;5.702;2022-12-18T09:38:07;28.55;;;16.35;;
43150;SDS011;28755;51.478;5.702;2022-12-18T09:40:36;28.23;;;16.23;;
43150;SDS011;28755;51.478;5.702;2022-12-18T09:45:51;30.40;;;17.08;;
43150;SDS011;28755;51.478;5.702;2022-12-18T09:48:25;30.63;;;18.60;;
43150;SDS011;28755;51.478;5.702;2022-12-18T09:50:56;27.95;;;16.20;;
43150;SDS011;28755;51.478;5.702;2022-12-18T09:53:30;28.67;;;15.80;;
43150;SDS011;28755;51.478;5.702;2022-12-18T09:56:00;23.83;;;14.57;;
43150;SDS011;28755;51.478;5.702;2022-12-18T09:58:33;28.00;;;14.85;;
43150;SDS011;28755;51.478;5.702;2022-12-18T10:01:10;28.50;;;15.13;;
43150;SDS011;28755;51.478;5.702;2022-12-18T10:03:39;27.55;;;15.15;;
43150;SDS011;28755;51.478;5.702;2022-12-18T10:06:12;29.45;;;16.08;;
43150;SDS011;28755;51.478;5.702;2022-12-18T10:08:49;29.17;;;15.02;;
43150;SDS011;28755;51.478;5.702;2022-12-18T10:11:40;27.75;;;16.25;;
43150;SDS011;28755;51.478;5.702;2022-12-18T10:20:21;25.40;;;14.95;;
43150;SDS011;28755;51.478;5.702;2022-12-18T10:25:40;27.50;;;14.45;;
43150;SDS011;28755;51.478;5.702;2022-12-18T10:28:18;25.85;;;14.48;;
43150;SDS011;28755;51.478;5.702;2022-12-18T10:30:45;25.80;;;14.13;;
43150;SDS011;28755;51.478;5.702;2022-12-18T10:33:15;30.27;;;15.07;;
43150;SDS011;28755;51.478;5.702;2022-12-18T10:35:43;27.15;;;15.25;;
43150;SDS011;28755;51.478;5.702;2022-12-18T10:43:36;24.13;;;14.00;;
43150;SDS011;28755;51.478;5.702;2022-12-18T10:51:19;26.92;;;15.32;;
43150;SDS011;28755;51.478;5.702;2022-12-18T10:53:59;29.90;;;16.05;;
43150;SDS011;28755;51.478;5.702;2022-12-18T10:56:28;27.75;;;15.52;;
43150;SDS011;28755;51.478;5.702;2022-12-18T10:58:58;29.45;;;16.73;;
43150;SDS011;28755;51.478;5.702;2022-12-18T11:01:28;26.42;;;15.50;;
43150;SDS011;28755;51.478;5.702;2022-12-18T11:04:15;24.58;;;14.70;;
43150;SDS011;28755;51.478;5.702;2022-12-18T11:07:03;28.35;;;15.07;;
43150;SDS011;28755;51.478;5.702;2022-12-18T11:09:34;27.38;;;15.23;;
43150;SDS011;28755;51.478;5.702;2022-12-18T11:12:04;32.58;;;16.27;;
43150;SDS011;28755;51.478;5.702;2022-12-18T11:17:18;29.95;;;16.50;;
43150;SDS011;28755;51.478;5.702;2022-12-18T11:19:45;27.70;;;16.50;;
43150;SDS011;28755;51.478;5.702;2022-12-18T11:22:25;25.90;;;15.53;;
43150;SDS011;28755;51.478;5.702;2022-12-18T11:24:56;34.45;;;18.75;;
43150;SDS011;28755;51.478;5.702;2022-12-18T11:27:28;32.55;;;18.35;;
43150;SDS011;28755;51.478;5.702;2022-12-18T11:30:07;26.00;;;15.65;;
43150;SDS011;28755;51.478;5.702;2022-12-18T11:32:45;29.13;;;16.85;;
43150;SDS011;28755;51.478;5.702;2022-12-18T11:38:06;29.33;;;16.05;;
43150;SDS011;28755;51.478;5.702;2022-12-18T11:40:44;27.73;;;15.52;;
43150;SDS011;28755;51.478;5.702;2022-12-18T11:43:15;25.63;;;15.75;;
43150;SDS011;28755;51.478;5.702;2022-12-18T11:46:08;29.60;;;15.37;;
43150;SDS011;28755;51.478;5.702;2022-12-18T11:48:42;27.20;;;16.13;;
43150;SDS011;28755;51.478;5.702;2022-12-18T11:51:31;27.88;;;16.58;;
43150;SDS011;28755;51.478;5.702;2022-12-18T11:54:07;26.38;;;15.95;;
43150;SDS011;28755;51.478;5.702;2022-12-18T11:56:49;30.48;;;16.38;;
43150;SDS011;28755;51.478;5.702;2022-12-18T11:59:24;31.70;;;16.15;;
43150;SDS011;28755;51.478;5.702;2022-12-18T12:05:09;27.33;;;15.67;;
43150;SDS011;28755;51.478;5.702;2022-12-18T12:07:45;27.67;;;16.05;;
43150;SDS011;28755;51.478;5.702;2022-12-18T12:13:01;27.58;;;15.55;;
43150;SDS011;28755;51.478;5.702;2022-12-18T12:21:25;27.50;;;15.90;;
43150;SDS011;28755;51.478;5.702;2022-12-18T12:29:42;29.13;;;16.02;;
43150;SDS011;28755;51.478;5.702;2022-12-18T12:32:16;29.50;;;16.63;;
43150;SDS011;28755;51.478;5.702;2022-12-18T12:40:30;26.17;;;15.55;;
43150;SDS011;28755;51.478;5.702;2022-12-18T12:48:35;27.55;;;16.25;;
43150;SDS011;28755;51.478;5.702;2022-12-18T12:51:21;27.55;;;16.63;;
43150;SDS011;28755;51.478;5.702;2022-12-18T12:53:51;26.15;;;16.00;;
43150;SDS011;28755;51.478;5.702;2022-12-18T12:56:18;27.52;;;16.40;;
43150;SDS011;28755;51.478;5.702;2022-12-18T13:12:51;30.33;;;16.55;;
43150;SDS011;28755;51.478;5.702;2022-12-18T13:15:23;28.75;;;15.80;;
43150;SDS011;28755;51.478;5.702;2022-12-18T13:20:33;28.52;;;15.85;;
43150;SDS011;28755;51.478;5.702;2022-12-18T13:25:49;28.05;;;16.15;;
43150;SDS011;28755;51.478;5.702;2022-12-18T13:28:22;31.38;;;16.40;;
43150;SDS011;28755;51.478;5.702;2022-12-18T13:31:08;29.23;;;17.02;;
43150;SDS011;28755;51.478;5.702;2022-12-18T13:33:41;26.77;;;15.57;;
43150;SDS011;28755;51.478;5.702;2022-12-18T13:36:11;27.30;;;16.52;;
43150;SDS011;28755;51.478;5.702;2022-12-18T13:38:41;29.67;;;16.63;;
43150;SDS011;28755;51.478;5.702;2022-12-18T13:43:43;28.42;;;16.50;;
43150;SDS011;28755;51.478;5.702;2022-12-18T13:51:49;30.17;;;16.90;;
43150;SDS011;28755;51.478;5.702;2022-12-18T13:54:35;27.95;;;16.25;;
43150;SDS011;28755;51.478;5.702;2022-12-18T13:57:05;33.17;;;16.63;;
43150;SDS011;28755;51.478;5.702;2022-12-18T13:59:50;29.77;;;17.40;;
43150;SDS011;28755;51.478;5.702;2022-12-18T14:02:17;30.08;;;17.30;;
43150;SDS011;28755;51.478;5.702;2022-12-18T14:07:16;31.75;;;19.08;;
43150;SDS011;28755;51.478;5.702;2022-12-18T14:09:43;29.58;;;17.25;;
43150;SDS011;28755;51.478;5.702;2022-12-18T14:12:24;29.40;;;17.45;;
43150;SDS011;28755;51.478;5.702;2022-12-18T14:17:50;27.52;;;15.95;;
43150;SDS011;28755;51.478;5.702;2022-12-18T14:20:17;31.88;;;16.70;;
43150;SDS011;28755;51.478;5.702;2022-12-18T14:22:44;30.63;;;17.42;;
43150;SDS011;28755;51.478;5.702;2022-12-18T14:25:19;29.55;;;16.38;;
43150;SDS011;28755;51.478;5.702;2022-12-18T14:27:46;38.22;;;21.92;;
43150;SDS011;28755;51.478;5.702;2022-12-18T14:33:01;34.85;;;18.70;;
43150;SDS011;28755;51.478;5.702;2022-12-18T14:35:26;26.88;;;16.70;;
43150;SDS011;28755;51.478;5.702;2022-12-18T14:37:52;28.15;;;16.55;;
43150;SDS011;28755;51.478;5.702;2022-12-18T14:40:18;29.63;;;17.20;;
43150;SDS011;28755;51.478;5.702;2022-12-18T14:42:44;29.33;;;17.05;;
43150;SDS011;28755;51.478;5.702;2022-12-18T14:47:58;33.08;;;17.05;;
43150;SDS011;28755;51.478;5.702;2022-12-18T14:50:25;26.23;;;16.25;;
43150;SDS011;28755;51.478;5.702;2022-12-18T14:52:51;30.77;;;15.82;;
43150;SDS011;28755;51.478;5.702;2022-12-18T14:55:17;31.70;;;16.60;;
43150;SDS011;28755;51.478;5.702;2022-12-18T14:57:44;30.70;;;16.30;;
43150;SDS011;28755;51.478;5.702;2022-12-18T15:00:15;34.20;;;17.48;;
43150;SDS011;28755;51.478;5.702;2022-12-18T15:02:43;32.17;;;15.50;;
43150;SDS011;28755;51.478;5.702;2022-12-18T15:07:49;29.50;;;16.33;;
43150;SDS011;28755;51.478;5.702;2022-12-18T15:12:48;30.77;;;15.85;;
43150;SDS011;28755;51.478;5.702;2022-12-18T15:20:49;27.80;;;15.40;;
43150;SDS011;28755;51.478;5.702;2022-12-18T15:23:24;33.58;;;15.07;;
43150;SDS011;28755;51.478;5.702;2022-12-18T15:25:59;30.25;;;14.65;;
43150;SDS011;28755;51.478;5.702;2022-12-18T15:28:34;27.75;;;14.93;;
43150;SDS011;28755;51.478;5.702;2022-12-18T15:33:38;28.63;;;15.10;;
43150;SDS011;28755;51.478;5.702;2022-12-18T15:36:05;25.30;;;14.90;;
43150;SDS011;28755;51.478;5.702;2022-12-18T15:38:35;30.20;;;15.50;;
43150;SDS011;28755;51.478;5.702;2022-12-18T15:41:01;26.83;;;14.55;;
43150;SDS011;28755;51.478;5.702;2022-12-18T15:43:27;28.73;;;15.02;;
43150;SDS011;28755;51.478;5.702;2022-12-18T15:46:10;37.33;;;15.30;;
43150;SDS011;28755;51.478;5.702;2022-12-18T15:48:45;31.45;;;15.13;;
43150;SDS011;28755;51.478;5.702;2022-12-18T15:51:35;34.63;;;14.65;;
43150;SDS011;28755;51.478;5.702;2022-12-18T15:54:02;26.17;;;15.45;;
43150;SDS011;28755;51.478;5.702;2022-12-18T15:56:30;31.05;;;15.57;;
43150;SDS011;28755;51.478;5.702;2022-12-18T15:59:18;33.00;;;14.50;;
43150;SDS011;28755;51.478;5.702;2022-12-18T16:01:45;32.22;;;17.02;;
43150;SDS011;28755;51.478;5.702;2022-12-18T16:04:13;29.83;;;16.00;;
43150;SDS011;28755;51.478;5.702;2022-12-18T16:06:40;28.42;;;15.27;;
43150;SDS011;28755;51.478;5.702;2022-12-18T16:09:06;30.65;;;16.33;;
43150;SDS011;28755;51.478;5.702;2022-12-18T16:11:32;35.95;;;16.60;;
43150;SDS011;28755;51.478;5.702;2022-12-18T16:16:55;28.40;;;16.17;;
43150;SDS011;28755;51.478;5.702;2022-12-18T16:19:22;34.10;;;16.65;;
43150;SDS011;28755;51.478;5.702;2022-12-18T16:21:49;26.95;;;15.48;;
43150;SDS011;28755;51.478;5.702;2022-12-18T16:24:17;28.45;;;15.77;;
43150;SDS011;28755;51.478;5.702;2022-12-18T16:26:44;32.03;;;16.15;;
43150;SDS011;28755;51.478;5.702;2022-12-18T16:29:10;32.85;;;16.55;;
43150;SDS011;28755;51.478;5.702;2022-12-18T16:31:36;28.95;;;14.57;;
43150;SDS011;28755;51.478;5.702;2022-12-18T16:36:48;26.73;;;15.73;;
43150;SDS011;28755;51.478;5.702;2022-12-18T16:39:14;28.08;;;15.63;;
43150;SDS011;28755;51.478;5.702;2022-12-18T16:41:40;29.50;;;15.43;;
43150;SDS011;28755;51.478;5.702;2022-12-18T16:44:06;32.53;;;16.40;;
43150;SDS011;28755;51.478;5.702;2022-12-18T16:46:31;30.95;;;16.05;;
43150;SDS011;28755;51.478;5.702;2022-12-18T16:48:57;30.70;;;16.60;;
43150;SDS011;28755;51.478;5.702;2022-12-18T16:51:24;29.45;;;16.63;;
43150;SDS011;28755;51.478;5.702;2022-12-18T16:53:50;30.73;;;16.30;;